KBJI/BJI METAR and TAF weather

Enter ICAO airport designator
Station Type Date Time Source
KBJI METAR 2020/07/09 23:15 UTC NOAA

KBJI 092315Z AUTO 27008G14KT 10SM SCT048 23/14 A2984 RMK AO2 T02270138


Station Type Date Time Source
KBJI Decoded METAR 2020/07/09 23:15 UTC NOAA

Bemidji, MN, United States (KBJI) 47-30N 094-56W 420M
Jul 09, 2020 - 07:15 PM EDT / 2020.07.09 2315 UTC
Wind: from the W (270 degrees) at 9 MPH (8 KT) gusting to 16 MPH (14 KT):0
Visibility: 10 mile(s):0
Sky conditions: partly cloudy
Temperature: 72.9 F (22.7 C)
Dew Point: 56.8 F (13.8 C)
Relative Humidity: 57%
Pressure (altimeter): 29.84 in. Hg (1010 hPa)
ob: KBJI 092315Z AUTO 27008G14KT 10SM SCT048 23/14 A2984 RMK AO2 T02270138
cycle: 23

Station Type Date Time Source
KBJI TAF 2020/07/09 22:51 UTC NOAA

TAF
AMD KBJI 092148Z 0922/1018 27013G18KT P6SM BKN050
FM092300 27013KT P6SM SCT050
FM100400 VRB03KT P6SM FEW250

Example: see airport list